CYQG

Windsor Airport

Windsor, , Canada
TAF CYQG 221138Z 2212/2312 36012G22KT P6SM SCT030 TEMPO 2212/2216 BKN020 BECMG 2213/2215 02010KT FM222000 05008KT P6SM FEW030 FM230000 VRB03KT P6SM SKC RMK FCST BASED ON AUTO OBS. NXT FCST BY 221800Z
Issued Valid From Valid To
Sep-22 @ 11:38 UTC
(3 hours ago)
Sep-22 @ 12:00 UTC
(3 hours ago)
Sep-23 @ 12:00 UTC
(in 21 hours)
to
to
to
to
to
TAF CYQG 221138Z 2212/2312 36012G22KT P6SM SCT030 TEMPO 2212/2216 BKN020 BECMG 2213/2215 02010KT FM222000 05008KT P6SM FEW030 FM230000 VRB03KT P6SM SKC RMK FCST BASED ON AUTO OBS. NXT FCST BY 221800Z
Issued Sep-22 @ 11:38 UTC
(3 hours ago)
Valid From Sep-22 @ 12:00 UTC
(3 hours ago)
Valid To Sep-23 @ 12:00 UTC
(in 21 hours)
-
-
-
-
-